sensor_id;sensor_type;location;lat;lon;timestamp;P1;durP1;ratioP1;P2;durP2;ratioP2
11004;SDS011;5555;59.622;16.556;2023-07-31T00:00:11;6.90;;;3.30;;
11004;SDS011;5555;59.622;16.556;2023-07-31T00:02:37;6.93;;;3.97;;
11004;SDS011;5555;59.622;16.556;2023-07-31T00:05:03;5.00;;;3.67;;
11004;SDS011;5555;59.622;16.556;2023-07-31T00:07:29;5.53;;;4.20;;
11004;SDS011;5555;59.622;16.556;2023-07-31T00:09:55;5.77;;;4.20;;
11004;SDS011;5555;59.622;16.556;2023-07-31T00:12:21;7.27;;;4.60;;
11004;SDS011;5555;59.622;16.556;2023-07-31T00:14:47;4.83;;;4.37;;
11004;SDS011;5555;59.622;16.556;2023-07-31T00:17:14;5.33;;;4.50;;
11004;SDS011;5555;59.622;16.556;2023-07-31T00:19:39;4.60;;;4.20;;
11004;SDS011;5555;59.622;16.556;2023-07-31T00:22:05;5.47;;;4.50;;
11004;SDS011;5555;59.622;16.556;2023-07-31T00:24:31;6.50;;;4.47;;
11004;SDS011;5555;59.622;16.556;2023-07-31T00:26:56;5.70;;;4.70;;
11004;SDS011;5555;59.622;16.556;2023-07-31T00:29:22;6.03;;;4.80;;
11004;SDS011;5555;59.622;16.556;2023-07-31T00:31:47;6.13;;;4.43;;
11004;SDS011;5555;59.622;16.556;2023-07-31T00:34:13;7.57;;;4.80;;
11004;SDS011;5555;59.622;16.556;2023-07-31T00:36:39;6.20;;;4.70;;
11004;SDS011;5555;59.622;16.556;2023-07-31T00:39:04;6.07;;;4.60;;
11004;SDS011;5555;59.622;16.556;2023-07-31T00:41:30;6.33;;;5.03;;
11004;SDS011;5555;59.622;16.556;2023-07-31T00:43:56;7.10;;;4.90;;
11004;SDS011;5555;59.622;16.556;2023-07-31T00:46:21;6.13;;;4.93;;
11004;SDS011;5555;59.622;16.556;2023-07-31T00:48:47;5.93;;;5.27;;
11004;SDS011;5555;59.622;16.556;2023-07-31T00:51:13;7.43;;;4.87;;
11004;SDS011;5555;59.622;16.556;2023-07-31T00:53:39;8.53;;;5.10;;
11004;SDS011;5555;59.622;16.556;2023-07-31T00:56:05;7.10;;;5.13;;
11004;SDS011;5555;59.622;16.556;2023-07-31T00:58:31;9.20;;;5.03;;
11004;SDS011;5555;59.622;16.556;2023-07-31T01:00:57;6.70;;;5.30;;
11004;SDS011;5555;59.622;16.556;2023-07-31T01:03:23;6.83;;;5.20;;
11004;SDS011;5555;59.622;16.556;2023-07-31T01:06:06;6.63;;;4.77;;
11004;SDS011;5555;59.622;16.556;2023-07-31T01:11:25;6.50;;;5.07;;
11004;SDS011;5555;59.622;16.556;2023-07-31T01:13:54;6.53;;;5.40;;
11004;SDS011;5555;59.622;16.556;2023-07-31T01:16:20;6.93;;;5.57;;
11004;SDS011;5555;59.622;16.556;2023-07-31T01:18:46;6.77;;;5.33;;
11004;SDS011;5555;59.622;16.556;2023-07-31T01:29:34;6.60;;;5.30;;
11004;SDS011;5555;59.622;16.556;2023-07-31T01:32:07;5.67;;;5.17;;
11004;SDS011;5555;59.622;16.556;2023-07-31T01:34:36;5.83;;;4.90;;
11004;SDS011;5555;59.622;16.556;2023-07-31T01:37:02;5.53;;;5.00;;
11004;SDS011;5555;59.622;16.556;2023-07-31T01:39:28;5.63;;;5.03;;
11004;SDS011;5555;59.622;16.556;2023-07-31T01:41:54;6.20;;;5.60;;
11004;SDS011;5555;59.622;16.556;2023-07-31T01:44:19;5.47;;;4.97;;
11004;SDS011;5555;59.622;16.556;2023-07-31T01:46:45;6.77;;;5.07;;
11004;SDS011;5555;59.622;16.556;2023-07-31T01:49:11;6.70;;;6.00;;
11004;SDS011;5555;59.622;16.556;2023-07-31T01:51:36;7.50;;;5.50;;
11004;SDS011;5555;59.622;16.556;2023-07-31T01:54:02;8.53;;;5.90;;
11004;SDS011;5555;59.622;16.556;2023-07-31T01:56:28;6.33;;;5.73;;
11004;SDS011;5555;59.622;16.556;2023-07-31T01:58:54;8.17;;;6.10;;
11004;SDS011;5555;59.622;16.556;2023-07-31T02:01:19;7.00;;;5.90;;
11004;SDS011;5555;59.622;16.556;2023-07-31T02:03:45;7.43;;;6.73;;
11004;SDS011;5555;59.622;16.556;2023-07-31T02:06:11;11.33;;;6.80;;
11004;SDS011;5555;59.622;16.556;2023-07-31T02:08:36;7.77;;;6.50;;
11004;SDS011;5555;59.622;16.556;2023-07-31T02:11:02;7.73;;;6.90;;
11004;SDS011;5555;59.622;16.556;2023-07-31T02:13:28;8.47;;;6.87;;
11004;SDS011;5555;59.622;16.556;2023-07-31T02:15:54;7.80;;;7.00;;
11004;SDS011;5555;59.622;16.556;2023-07-31T02:18:19;7.00;;;6.37;;
11004;SDS011;5555;59.622;16.556;2023-07-31T02:20:49;7.17;;;6.27;;
11004;SDS011;5555;59.622;16.556;2023-07-31T02:23:16;8.30;;;7.43;;
11004;SDS011;5555;59.622;16.556;2023-07-31T02:25:43;9.17;;;7.37;;
11004;SDS011;5555;59.622;16.556;2023-07-31T02:28:08;8.77;;;7.10;;
11004;SDS011;5555;59.622;16.556;2023-07-31T02:30:34;8.10;;;7.30;;
11004;SDS011;5555;59.622;16.556;2023-07-31T02:33:00;7.30;;;6.70;;
11004;SDS011;5555;59.622;16.556;2023-07-31T02:35:25;7.17;;;6.53;;
11004;SDS011;5555;59.622;16.556;2023-07-31T02:37:51;7.97;;;7.17;;
11004;SDS011;5555;59.622;16.556;2023-07-31T02:40:16;7.20;;;6.53;;
11004;SDS011;5555;59.622;16.556;2023-07-31T02:42:42;9.40;;;7.50;;
11004;SDS011;5555;59.622;16.556;2023-07-31T02:45:08;8.03;;;7.17;;
11004;SDS011;5555;59.622;16.556;2023-07-31T02:47:34;11.40;;;7.40;;
11004;SDS011;5555;59.622;16.556;2023-07-31T02:49:59;7.23;;;6.53;;
11004;SDS011;5555;59.622;16.556;2023-07-31T02:52:25;7.60;;;6.90;;
11004;SDS011;5555;59.622;16.556;2023-07-31T02:54:51;8.40;;;6.67;;
11004;SDS011;5555;59.622;16.556;2023-07-31T02:57:17;9.20;;;6.90;;
11004;SDS011;5555;59.622;16.556;2023-07-31T02:59:42;7.60;;;6.80;;
11004;SDS011;5555;59.622;16.556;2023-07-31T03:02:08;8.53;;;7.10;;
11004;SDS011;5555;59.622;16.556;2023-07-31T03:04:33;8.37;;;6.83;;
11004;SDS011;5555;59.622;16.556;2023-07-31T03:06:59;8.83;;;6.80;;
11004;SDS011;5555;59.622;16.556;2023-07-31T03:09:25;7.67;;;6.90;;
11004;SDS011;5555;59.622;16.556;2023-07-31T03:11:50;10.67;;;7.20;;
11004;SDS011;5555;59.622;16.556;2023-07-31T03:14:16;7.80;;;6.67;;
11004;SDS011;5555;59.622;16.556;2023-07-31T03:16:41;7.93;;;6.67;;
11004;SDS011;5555;59.622;16.556;2023-07-31T03:19:07;8.20;;;6.80;;
11004;SDS011;5555;59.622;16.556;2023-07-31T03:21:32;7.40;;;6.53;;
11004;SDS011;5555;59.622;16.556;2023-07-31T03:23:58;7.53;;;6.93;;
11004;SDS011;5555;59.622;16.556;2023-07-31T03:26:24;9.33;;;6.73;;
11004;SDS011;5555;59.622;16.556;2023-07-31T03:28:49;9.33;;;7.00;;
11004;SDS011;5555;59.622;16.556;2023-07-31T03:31:15;7.87;;;7.13;;
11004;SDS011;5555;59.622;16.556;2023-07-31T03:33:40;8.03;;;7.27;;
11004;SDS011;5555;59.622;16.556;2023-07-31T03:36:06;9.20;;;6.70;;
11004;SDS011;5555;59.622;16.556;2023-07-31T03:38:33;8.20;;;7.13;;
11004;SDS011;5555;59.622;16.556;2023-07-31T03:40:59;9.03;;;6.70;;
11004;SDS011;5555;59.622;16.556;2023-07-31T03:43:25;7.67;;;6.77;;
11004;SDS011;5555;59.622;16.556;2023-07-31T03:45:50;7.43;;;6.73;;
11004;SDS011;5555;59.622;16.556;2023-07-31T03:48:16;7.60;;;6.80;;
11004;SDS011;5555;59.622;16.556;2023-07-31T03:50:42;7.93;;;7.17;;
11004;SDS011;5555;59.622;16.556;2023-07-31T03:53:07;7.33;;;6.60;;
11004;SDS011;5555;59.622;16.556;2023-07-31T03:55:33;6.73;;;6.10;;
11004;SDS011;5555;59.622;16.556;2023-07-31T03:57:59;6.97;;;6.30;;
11004;SDS011;5555;59.622;16.556;2023-07-31T04:00:25;6.73;;;5.93;;
11004;SDS011;5555;59.622;16.556;2023-07-31T04:02:52;6.70;;;6.10;;
11004;SDS011;5555;59.622;16.556;2023-07-31T04:05:17;7.10;;;5.90;;
11004;SDS011;5555;59.622;16.556;2023-07-31T04:07:43;7.67;;;5.50;;
11004;SDS011;5555;59.622;16.556;2023-07-31T04:10:09;5.67;;;5.27;;
11004;SDS011;5555;59.622;16.556;2023-07-31T04:12:34;6.80;;;6.10;;
11004;SDS011;5555;59.622;16.556;2023-07-31T04:15:00;8.70;;;6.33;;
11004;SDS011;5555;59.622;16.556;2023-07-31T04:17:26;6.10;;;5.37;;
11004;SDS011;5555;59.622;16.556;2023-07-31T04:19:51;5.63;;;5.03;;
11004;SDS011;5555;59.622;16.556;2023-07-31T04:22:17;6.63;;;5.63;;
11004;SDS011;5555;59.622;16.556;2023-07-31T04:24:42;5.70;;;5.00;;
11004;SDS011;5555;59.622;16.556;2023-07-31T04:27:08;5.57;;;4.90;;
11004;SDS011;5555;59.622;16.556;2023-07-31T04:29:34;5.20;;;4.73;;
11004;SDS011;5555;59.622;16.556;2023-07-31T04:31:59;6.43;;;4.40;;
11004;SDS011;5555;59.622;16.556;2023-07-31T04:34:25;5.33;;;4.10;;
11004;SDS011;5555;59.622;16.556;2023-07-31T04:36:50;3.80;;;3.50;;
11004;SDS011;5555;59.622;16.556;2023-07-31T04:39:16;6.97;;;3.50;;
11004;SDS011;5555;59.622;16.556;2023-07-31T04:41:42;4.93;;;3.60;;
11004;SDS011;5555;59.622;16.556;2023-07-31T04:44:07;4.50;;;3.80;;
11004;SDS011;5555;59.622;16.556;2023-07-31T04:46:33;4.10;;;3.03;;
11004;SDS011;5555;59.622;16.556;2023-07-31T04:48:58;4.40;;;3.07;;
11004;SDS011;5555;59.622;16.556;2023-07-31T04:51:25;4.60;;;3.00;;
11004;SDS011;5555;59.622;16.556;2023-07-31T04:53:51;4.67;;;2.50;;
11004;SDS011;5555;59.622;16.556;2023-07-31T04:56:17;4.83;;;2.83;;
11004;SDS011;5555;59.622;16.556;2023-07-31T04:58:42;6.50;;;2.70;;
11004;SDS011;5555;59.622;16.556;2023-07-31T05:01:08;5.13;;;2.50;;
11004;SDS011;5555;59.622;16.556;2023-07-31T05:03:33;3.93;;;2.60;;
11004;SDS011;5555;59.622;16.556;2023-07-31T05:05:59;6.67;;;2.80;;
11004;SDS011;5555;59.622;16.556;2023-07-31T05:08:24;6.60;;;2.73;;
11004;SDS011;5555;59.622;16.556;2023-07-31T05:10:50;5.40;;;2.63;;
11004;SDS011;5555;59.622;16.556;2023-07-31T05:13:16;4.63;;;2.40;;
11004;SDS011;5555;59.622;16.556;2023-07-31T05:15:42;4.10;;;2.50;;
11004;SDS011;5555;59.622;16.556;2023-07-31T05:18:07;4.23;;;2.03;;
11004;SDS011;5555;59.622;16.556;2023-07-31T05:20:33;6.40;;;2.73;;
11004;SDS011;5555;59.622;16.556;2023-07-31T05:22:59;5.30;;;2.83;;
11004;SDS011;5555;59.622;16.556;2023-07-31T05:25:24;2.40;;;2.10;;
11004;SDS011;5555;59.622;16.556;2023-07-31T05:27:50;4.27;;;2.40;;
11004;SDS011;5555;59.622;16.556;2023-07-31T05:30:15;6.67;;;2.70;;
11004;SDS011;5555;59.622;16.556;2023-07-31T05:32:41;5.13;;;2.47;;
11004;SDS011;5555;59.622;16.556;2023-07-31T05:35:07;5.13;;;2.03;;
11004;SDS011;5555;59.622;16.556;2023-07-31T05:37:32;4.60;;;2.10;;
11004;SDS011;5555;59.622;16.556;2023-07-31T05:39:58;5.37;;;1.90;;
11004;SDS011;5555;59.622;16.556;2023-07-31T05:42:23;2.77;;;1.80;;
11004;SDS011;5555;59.622;16.556;2023-07-31T05:44:49;4.83;;;1.87;;
11004;SDS011;5555;59.622;16.556;2023-07-31T05:47:15;3.53;;;2.10;;
11004;SDS011;5555;59.622;16.556;2023-07-31T05:49:40;4.57;;;2.17;;
11004;SDS011;5555;59.622;16.556;2023-07-31T05:52:06;5.07;;;2.37;;
11004;SDS011;5555;59.622;16.556;2023-07-31T05:54:32;4.53;;;2.10;;
11004;SDS011;5555;59.622;16.556;2023-07-31T05:56:58;6.13;;;2.57;;
11004;SDS011;5555;59.622;16.556;2023-07-31T05:59:24;4.30;;;2.47;;
11004;SDS011;5555;59.622;16.556;2023-07-31T06:01:49;4.50;;;1.97;;
11004;SDS011;5555;59.622;16.556;2023-07-31T06:04:15;3.80;;;2.13;;
11004;SDS011;5555;59.622;16.556;2023-07-31T06:06:41;4.27;;;2.30;;
11004;SDS011;5555;59.622;16.556;2023-07-31T06:09:06;7.97;;;2.27;;
11004;SDS011;5555;59.622;16.556;2023-07-31T06:11:32;3.83;;;2.50;;
11004;SDS011;5555;59.622;16.556;2023-07-31T06:13:58;7.03;;;2.97;;
11004;SDS011;5555;59.622;16.556;2023-07-31T06:16:24;5.63;;;2.53;;
11004;SDS011;5555;59.622;16.556;2023-07-31T06:18:50;6.23;;;2.90;;
11004;SDS011;5555;59.622;16.556;2023-07-31T06:21:16;4.87;;;3.20;;
11004;SDS011;5555;59.622;16.556;2023-07-31T06:23:42;4.67;;;2.90;;
11004;SDS011;5555;59.622;16.556;2023-07-31T06:26:08;5.33;;;2.87;;
11004;SDS011;5555;59.622;16.556;2023-07-31T06:28:34;5.47;;;3.43;;
11004;SDS011;5555;59.622;16.556;2023-07-31T06:31:00;6.80;;;3.13;;
11004;SDS011;5555;59.622;16.556;2023-07-31T06:33:26;5.33;;;3.27;;
11004;SDS011;5555;59.622;16.556;2023-07-31T06:35:52;6.63;;;3.37;;
11004;SDS011;5555;59.622;16.556;2023-07-31T06:38:21;4.90;;;3.20;;
11004;SDS011;5555;59.622;16.556;2023-07-31T06:40:49;5.93;;;3.60;;
11004;SDS011;5555;59.622;16.556;2023-07-31T06:43:14;7.20;;;3.40;;
11004;SDS011;5555;59.622;16.556;2023-07-31T06:45:40;6.20;;;3.17;;
11004;SDS011;5555;59.622;16.556;2023-07-31T06:48:05;5.77;;;3.30;;
11004;SDS011;5555;59.622;16.556;2023-07-31T06:50:31;6.50;;;3.47;;
11004;SDS011;5555;59.622;16.556;2023-07-31T06:52:57;6.07;;;3.07;;
11004;SDS011;5555;59.622;16.556;2023-07-31T06:55:23;4.80;;;3.23;;
11004;SDS011;5555;59.622;16.556;2023-07-31T06:57:50;6.07;;;2.80;;
11004;SDS011;5555;59.622;16.556;2023-07-31T07:00:17;3.37;;;2.70;;
11004;SDS011;5555;59.622;16.556;2023-07-31T07:02:44;6.77;;;3.00;;
11004;SDS011;5555;59.622;16.556;2023-07-31T07:05:12;4.70;;;2.50;;
11004;SDS011;5555;59.622;16.556;2023-07-31T07:07:38;6.80;;;2.53;;
11004;SDS011;5555;59.622;16.556;2023-07-31T07:10:04;7.20;;;2.90;;
11004;SDS011;5555;59.622;16.556;2023-07-31T07:12:31;8.47;;;3.10;;
11004;SDS011;5555;59.622;16.556;2023-07-31T07:14:58;7.13;;;2.90;;
11004;SDS011;5555;59.622;16.556;2023-07-31T07:17:24;5.77;;;2.93;;
11004;SDS011;5555;59.622;16.556;2023-07-31T07:19:51;3.70;;;2.93;;
11004;SDS011;5555;59.622;16.556;2023-07-31T07:22:17;5.93;;;2.83;;
11004;SDS011;5555;59.622;16.556;2023-07-31T07:24:43;6.13;;;2.93;;
11004;SDS011;5555;59.622;16.556;2023-07-31T07:27:08;7.40;;;3.13;;
11004;SDS011;5555;59.622;16.556;2023-07-31T07:29:34;6.20;;;3.27;;
11004;SDS011;5555;59.622;16.556;2023-07-31T07:32:00;4.00;;;2.57;;
11004;SDS011;5555;59.622;16.556;2023-07-31T07:34:26;8.57;;;3.20;;
11004;SDS011;5555;59.622;16.556;2023-07-31T07:36:52;5.27;;;2.60;;
11004;SDS011;5555;59.622;16.556;2023-07-31T07:39:18;5.13;;;2.70;;
11004;SDS011;5555;59.622;16.556;2023-07-31T07:41:44;4.27;;;2.60;;
11004;SDS011;5555;59.622;16.556;2023-07-31T07:44:10;8.47;;;3.07;;
11004;SDS011;5555;59.622;16.556;2023-07-31T07:46:35;5.57;;;2.60;;
11004;SDS011;5555;59.622;16.556;2023-07-31T07:49:01;11.60;;;3.33;;
11004;SDS011;5555;59.622;16.556;2023-07-31T07:51:26;3.77;;;2.47;;
11004;SDS011;5555;59.622;16.556;2023-07-31T07:53:52;5.67;;;2.80;;
11004;SDS011;5555;59.622;16.556;2023-07-31T07:56:18;4.93;;;3.43;;
11004;SDS011;5555;59.622;16.556;2023-07-31T07:58:43;6.40;;;2.67;;
11004;SDS011;5555;59.622;16.556;2023-07-31T08:01:09;4.90;;;3.00;;
11004;SDS011;5555;59.622;16.556;2023-07-31T08:03:34;5.77;;;2.47;;
11004;SDS011;5555;59.622;16.556;2023-07-31T08:06:00;4.17;;;2.60;;
11004;SDS011;5555;59.622;16.556;2023-07-31T08:08:26;4.67;;;2.80;;
11004;SDS011;5555;59.622;16.556;2023-07-31T08:10:53;5.77;;;2.77;;
11004;SDS011;5555;59.622;16.556;2023-07-31T08:13:19;6.67;;;2.60;;
11004;SDS011;5555;59.622;16.556;2023-07-31T08:15:44;5.80;;;2.47;;
11004;SDS011;5555;59.622;16.556;2023-07-31T08:18:11;5.43;;;2.07;;
11004;SDS011;5555;59.622;16.556;2023-07-31T08:20:37;5.40;;;2.40;;
11004;SDS011;5555;59.622;16.556;2023-07-31T08:23:03;4.47;;;2.37;;
11004;SDS011;5555;59.622;16.556;2023-07-31T08:25:29;3.77;;;2.53;;
11004;SDS011;5555;59.622;16.556;2023-07-31T08:27:55;2.47;;;1.97;;
11004;SDS011;5555;59.622;16.556;2023-07-31T08:30:20;4.67;;;2.30;;
11004;SDS011;5555;59.622;16.556;2023-07-31T08:32:46;3.90;;;1.97;;
11004;SDS011;5555;59.622;16.556;2023-07-31T08:35:12;3.77;;;1.97;;
11004;SDS011;5555;59.622;16.556;2023-07-31T08:37:37;5.33;;;2.30;;
11004;SDS011;5555;59.622;16.556;2023-07-31T08:40:03;4.97;;;2.27;;
11004;SDS011;5555;59.622;16.556;2023-07-31T08:42:30;4.77;;;2.30;;
11004;SDS011;5555;59.622;16.556;2023-07-31T08:44:56;4.73;;;2.13;;
11004;SDS011;5555;59.622;16.556;2023-07-31T08:47:25;4.57;;;2.53;;
11004;SDS011;5555;59.622;16.556;2023-07-31T08:49:51;3.70;;;2.30;;
11004;SDS011;5555;59.622;16.556;2023-07-31T08:52:17;4.37;;;2.20;;
11004;SDS011;5555;59.622;16.556;2023-07-31T08:54:43;5.67;;;2.30;;
11004;SDS011;5555;59.622;16.556;2023-07-31T08:57:08;4.00;;;2.20;;
11004;SDS011;5555;59.622;16.556;2023-07-31T08:59:35;5.70;;;2.30;;
11004;SDS011;5555;59.622;16.556;2023-07-31T09:02:05;5.43;;;1.90;;
11004;SDS011;5555;59.622;16.556;2023-07-31T09:04:33;5.37;;;2.50;;
11004;SDS011;5555;59.622;16.556;2023-07-31T09:07:00;4.87;;;2.10;;
11004;SDS011;5555;59.622;16.556;2023-07-31T09:09:29;4.27;;;2.30;;
11004;SDS011;5555;59.622;16.556;2023-07-31T09:11:58;2.50;;;1.77;;
11004;SDS011;5555;59.622;16.556;2023-07-31T09:14:27;4.40;;;2.17;;
11004;SDS011;5555;59.622;16.556;2023-07-31T09:16:56;6.47;;;2.37;;
11004;SDS011;5555;59.622;16.556;2023-07-31T09:19:33;3.63;;;2.30;;
11004;SDS011;5555;59.622;16.556;2023-07-31T09:22:02;5.97;;;2.00;;
11004;SDS011;5555;59.622;16.556;2023-07-31T09:24:28;4.83;;;3.00;;
11004;SDS011;5555;59.622;16.556;2023-07-31T09:26:56;3.77;;;2.13;;
11004;SDS011;5555;59.622;16.556;2023-07-31T09:29:23;5.97;;;2.30;;
11004;SDS011;5555;59.622;16.556;2023-07-31T09:31:50;6.33;;;2.43;;
11004;SDS011;5555;59.622;16.556;2023-07-31T09:34:15;5.43;;;2.20;;
11004;SDS011;5555;59.622;16.556;2023-07-31T09:39:08;4.90;;;2.03;;
11004;SDS011;5555;59.622;16.556;2023-07-31T09:41:38;5.77;;;2.10;;
11004;SDS011;5555;59.622;16.556;2023-07-31T09:44:05;3.07;;;1.97;;
11004;SDS011;5555;59.622;16.556;2023-07-31T09:46:32;4.43;;;1.67;;
11004;SDS011;5555;59.622;16.556;2023-07-31T09:49:11;5.53;;;2.10;;
11004;SDS011;5555;59.622;16.556;2023-07-31T09:51:38;4.93;;;2.00;;
11004;SDS011;5555;59.622;16.556;2023-07-31T09:54:09;4.67;;;1.90;;
11004;SDS011;5555;59.622;16.556;2023-07-31T09:56:38;4.27;;;1.90;;
11004;SDS011;5555;59.622;16.556;2023-07-31T09:59:19;5.53;;;1.90;;
11004;SDS011;5555;59.622;16.556;2023-07-31T10:01:45;4.60;;;1.80;;
11004;SDS011;5555;59.622;16.556;2023-07-31T10:04:12;3.47;;;1.60;;
11004;SDS011;5555;59.622;16.556;2023-07-31T10:06:38;5.63;;;2.10;;
11004;SDS011;5555;59.622;16.556;2023-07-31T10:09:05;3.77;;;1.87;;
11004;SDS011;5555;59.622;16.556;2023-07-31T10:11:43;2.17;;;1.37;;
11004;SDS011;5555;59.622;16.556;2023-07-31T10:14:21;4.33;;;2.00;;
11004;SDS011;5555;59.622;16.556;2023-07-31T10:16:48;3.40;;;1.73;;
11004;SDS011;5555;59.622;16.556;2023-07-31T10:19:14;4.43;;;1.70;;
11004;SDS011;5555;59.622;16.556;2023-07-31T10:21:40;6.17;;;1.90;;
11004;SDS011;5555;59.622;16.556;2023-07-31T10:24:07;3.40;;;1.40;;
11004;SDS011;5555;59.622;16.556;2023-07-31T10:26:34;3.80;;;1.47;;
11004;SDS011;5555;59.622;16.556;2023-07-31T10:29:02;4.50;;;1.70;;
11004;SDS011;5555;59.622;16.556;2023-07-31T10:31:29;5.07;;;1.60;;
11004;SDS011;5555;59.622;16.556;2023-07-31T10:33:55;4.30;;;1.93;;
11004;SDS011;5555;59.622;16.556;2023-07-31T10:36:24;3.43;;;1.63;;
11004;SDS011;5555;59.622;16.556;2023-07-31T10:38:50;4.53;;;2.00;;
11004;SDS011;5555;59.622;16.556;2023-07-31T10:41:16;6.13;;;1.97;;
11004;SDS011;5555;59.622;16.556;2023-07-31T10:43:42;1.60;;;1.20;;
11004;SDS011;5555;59.622;16.556;2023-07-31T10:46:14;3.00;;;1.60;;
11004;SDS011;5555;59.622;16.556;2023-07-31T10:48:40;4.00;;;1.97;;
11004;SDS011;5555;59.622;16.556;2023-07-31T10:51:07;4.13;;;1.67;;
11004;SDS011;5555;59.622;16.556;2023-07-31T10:53:35;6.33;;;1.73;;
11004;SDS011;5555;59.622;16.556;2023-07-31T10:56:02;3.53;;;1.50;;
11004;SDS011;5555;59.622;16.556;2023-07-31T10:58:29;3.77;;;1.50;;
11004;SDS011;5555;59.622;16.556;2023-07-31T11:00:57;3.93;;;1.17;;
11004;SDS011;5555;59.622;16.556;2023-07-31T11:03:25;2.63;;;1.27;;
11004;SDS011;5555;59.622;16.556;2023-07-31T11:06:01;2.17;;;1.27;;
11004;SDS011;5555;59.622;16.556;2023-07-31T11:08:30;3.23;;;1.40;;
11004;SDS011;5555;59.622;16.556;2023-07-31T11:13:54;2.03;;;1.07;;
11004;SDS011;5555;59.622;16.556;2023-07-31T11:16:22;2.70;;;1.30;;
11004;SDS011;5555;59.622;16.556;2023-07-31T11:18:49;1.97;;;1.20;;
11004;SDS011;5555;59.622;16.556;2023-07-31T11:21:20;2.37;;;1.17;;
11004;SDS011;5555;59.622;16.556;2023-07-31T11:23:47;2.83;;;0.90;;
11004;SDS011;5555;59.622;16.556;2023-07-31T11:26:18;3.03;;;1.17;;
11004;SDS011;5555;59.622;16.556;2023-07-31T11:28:47;1.47;;;0.97;;
11004;SDS011;5555;59.622;16.556;2023-07-31T11:31:14;1.90;;;0.87;;
11004;SDS011;5555;59.622;16.556;2023-07-31T11:33:40;2.27;;;1.20;;
11004;SDS011;5555;59.622;16.556;2023-07-31T11:36:05;2.90;;;1.03;;
11004;SDS011;5555;59.622;16.556;2023-07-31T11:38:39;3.37;;;1.10;;
11004;SDS011;5555;59.622;16.556;2023-07-31T11:41:04;5.30;;;1.40;;
11004;SDS011;5555;59.622;16.556;2023-07-31T11:43:33;1.20;;;0.80;;
11004;SDS011;5555;59.622;16.556;2023-07-31T11:46:01;1.60;;;0.93;;
11004;SDS011;5555;59.622;16.556;2023-07-31T11:48:31;3.05;;;0.82;;
11004;SDS011;5555;59.622;16.556;2023-07-31T11:51:00;2.03;;;0.90;;
11004;SDS011;5555;59.622;16.556;2023-07-31T11:56:08;2.45;;;1.02;;
11004;SDS011;5555;59.622;16.556;2023-07-31T11:58:36;3.25;;;1.00;;
11004;SDS011;5555;59.622;16.556;2023-07-31T12:01:03;1.95;;;1.05;;
11004;SDS011;5555;59.622;16.556;2023-07-31T12:03:30;1.30;;;0.77;;
11004;SDS011;5555;59.622;16.556;2023-07-31T12:05:57;1.75;;;1.00;;
11004;SDS011;5555;59.622;16.556;2023-07-31T12:08:24;2.97;;;1.20;;
11004;SDS011;5555;59.622;16.556;2023-07-31T12:10:50;2.10;;;0.95;;
11004;SDS011;5555;59.622;16.556;2023-07-31T12:13:21;1.92;;;1.13;;
11004;SDS011;5555;59.622;16.556;2023-07-31T12:15:48;2.22;;;1.27;;
11004;SDS011;5555;59.622;16.556;2023-07-31T12:18:14;1.60;;;1.00;;
11004;SDS011;5555;59.622;16.556;2023-07-31T12:20:45;2.42;;;1.17;;
11004;SDS011;5555;59.622;16.556;2023-07-31T12:23:14;1.65;;;1.02;;
11004;SDS011;5555;59.622;16.556;2023-07-31T12:25:54;3.78;;;1.23;;
11004;SDS011;5555;59.622;16.556;2023-07-31T12:28:28;1.17;;;0.88;;
11004;SDS011;5555;59.622;16.556;2023-07-31T12:30:58;2.15;;;1.20;;
11004;SDS011;5555;59.622;16.556;2023-07-31T12:33:29;4.50;;;1.40;;
11004;SDS011;5555;59.622;16.556;2023-07-31T12:36:03;1.80;;;1.00;;
11004;SDS011;5555;59.622;16.556;2023-07-31T12:38:31;2.63;;;1.40;;
11004;SDS011;5555;59.622;16.556;2023-07-31T12:40:57;3.00;;;1.17;;
11004;SDS011;5555;59.622;16.556;2023-07-31T12:43:22;1.87;;;1.23;;
11004;SDS011;5555;59.622;16.556;2023-07-31T12:45:48;1.30;;;1.03;;
11004;SDS011;5555;59.622;16.556;2023-07-31T12:48:14;2.30;;;1.27;;
11004;SDS011;5555;59.622;16.556;2023-07-31T12:50:40;4.00;;;1.50;;
11004;SDS011;5555;59.622;16.556;2023-07-31T12:53:05;6.53;;;1.63;;
11004;SDS011;5555;59.622;16.556;2023-07-31T12:55:31;4.27;;;1.40;;
11004;SDS011;5555;59.622;16.556;2023-07-31T12:58:00;1.60;;;1.20;;
11004;SDS011;5555;59.622;16.556;2023-07-31T13:00:26;2.63;;;1.50;;
11004;SDS011;5555;59.622;16.556;2023-07-31T13:02:51;1.70;;;1.30;;
11004;SDS011;5555;59.622;16.556;2023-07-31T13:05:17;1.73;;;1.23;;
11004;SDS011;5555;59.622;16.556;2023-07-31T13:07:44;1.93;;;1.10;;
11004;SDS011;5555;59.622;16.556;2023-07-31T13:10:10;3.37;;;1.43;;
11004;SDS011;5555;59.622;16.556;2023-07-31T13:12:36;3.43;;;1.57;;
11004;SDS011;5555;59.622;16.556;2023-07-31T13:15:02;2.37;;;1.23;;
11004;SDS011;5555;59.622;16.556;2023-07-31T13:17:29;2.93;;;1.43;;
11004;SDS011;5555;59.622;16.556;2023-07-31T13:19:55;1.77;;;1.23;;
11004;SDS011;5555;59.622;16.556;2023-07-31T13:22:21;2.03;;;1.20;;
11004;SDS011;5555;59.622;16.556;2023-07-31T13:24:46;2.47;;;1.17;;
11004;SDS011;5555;59.622;16.556;2023-07-31T13:27:12;1.60;;;1.13;;
11004;SDS011;5555;59.622;16.556;2023-07-31T13:29:38;1.17;;;0.83;;
11004;SDS011;5555;59.622;16.556;2023-07-31T13:32:04;2.77;;;1.10;;
11004;SDS011;5555;59.622;16.556;2023-07-31T13:34:30;1.20;;;1.10;;
11004;SDS011;5555;59.622;16.556;2023-07-31T13:36:55;2.80;;;1.50;;
11004;SDS011;5555;59.622;16.556;2023-07-31T13:39:21;4.57;;;1.10;;
11004;SDS011;5555;59.622;16.556;2023-07-31T13:41:47;1.63;;;0.95;;
11004;SDS011;5555;59.622;16.556;2023-07-31T13:44:12;2.25;;;0.90;;
11004;SDS011;5555;59.622;16.556;2023-07-31T13:46:39;1.65;;;1.13;;
11004;SDS011;5555;59.622;16.556;2023-07-31T13:49:04;1.80;;;1.05;;
11004;SDS011;5555;59.622;16.556;2023-07-31T13:51:30;2.20;;;0.90;;
11004;SDS011;5555;59.622;16.556;2023-07-31T13:53:56;2.92;;;1.13;;
11004;SDS011;5555;59.622;16.556;2023-07-31T13:56:21;1.13;;;0.70;;
11004;SDS011;5555;59.622;16.556;2023-07-31T13:58:47;0.90;;;0.80;;
11004;SDS011;5555;59.622;16.556;2023-07-31T14:01:12;1.70;;;0.95;;
11004;SDS011;5555;59.622;16.556;2023-07-31T14:03:38;1.02;;;0.70;;
11004;SDS011;5555;59.622;16.556;2023-07-31T14:06:04;1.45;;;1.13;;
11004;SDS011;5555;59.622;16.556;2023-07-31T14:08:29;2.50;;;0.77;;
11004;SDS011;5555;59.622;16.556;2023-07-31T14:10:56;1.25;;;0.80;;
11004;SDS011;5555;59.622;16.556;2023-07-31T14:13:22;1.35;;;0.82;;
11004;SDS011;5555;59.622;16.556;2023-07-31T14:15:47;1.70;;;1.10;;
11004;SDS011;5555;59.622;16.556;2023-07-31T14:18:13;0.73;;;0.68;;
11004;SDS011;5555;59.622;16.556;2023-07-31T14:20:39;1.63;;;0.75;;
11004;SDS011;5555;59.622;16.556;2023-07-31T14:23:05;1.45;;;0.90;;
11004;SDS011;5555;59.622;16.556;2023-07-31T14:25:31;1.45;;;1.13;;
11004;SDS011;5555;59.622;16.556;2023-07-31T14:27:58;1.98;;;1.05;;
11004;SDS011;5555;59.622;16.556;2023-07-31T14:30:24;2.15;;;1.00;;
11004;SDS011;5555;59.622;16.556;2023-07-31T14:32:50;2.08;;;0.90;;
11004;SDS011;5555;59.622;16.556;2023-07-31T14:35:15;3.13;;;1.00;;
11004;SDS011;5555;59.622;16.556;2023-07-31T14:37:42;2.20;;;1.15;;
11004;SDS011;5555;59.622;16.556;2023-07-31T14:40:10;2.13;;;1.02;;
11004;SDS011;5555;59.622;16.556;2023-07-31T14:42:37;1.98;;;1.08;;
11004;SDS011;5555;59.622;16.556;2023-07-31T14:45:03;1.73;;;1.02;;
11004;SDS011;5555;59.622;16.556;2023-07-31T14:47:30;3.75;;;1.00;;
11004;SDS011;5555;59.622;16.556;2023-07-31T14:49:58;1.45;;;1.10;;
11004;SDS011;5555;59.622;16.556;2023-07-31T14:52:30;2.92;;;1.38;;
11004;SDS011;5555;59.622;16.556;2023-07-31T14:54:56;2.67;;;1.30;;
11004;SDS011;5555;59.622;16.556;2023-07-31T14:57:22;1.77;;;1.20;;
11004;SDS011;5555;59.622;16.556;2023-07-31T14:59:47;1.27;;;1.00;;
11004;SDS011;5555;59.622;16.556;2023-07-31T15:02:13;2.40;;;1.20;;